Time;durP1;ratioP1;P1;durP2;ratioP2;P2;SDS_P1;SDS_P2;PMS_P1;PMS_P2;Temp;Humidity;BMP_temperature;BMP_pressure;BME280_temperature;BME280_humidity;BME280_pressure;Samples;Min_cycle;Max_cycle;Signal;HPM_P1;HPM_P2
2023/09/15 00:00:28;;;;;;;16.60;15.00;;;;;;;20.59;73.17;100369.45;107967;1253;60710;-71
2023/09/15 00:02:56;;;;;;;20.20;17.60;;;;;;;20.59;73.36;100372.20;108036;1254;60261;-71
2023/09/15 00:05:28;;;;;;;17.10;15.30;;;;;;;20.60;73.56;100367.67;108039;1252;74103;-72
2023/09/15 00:08:00;;;;;;;18.90;16.90;;;;;;;20.62;73.85;100366.02;108027;1254;72663;-70
2023/09/15 00:10:27;;;;;;;20.20;17.50;;;;;;;20.65;73.93;100361.46;108010;1254;72564;-72
2023/09/15 00:12:54;;;;;;;19.60;17.50;;;;;;;20.68;73.96;100358.19;108114;1254;62045;-70
2023/09/15 00:15:21;;;;;;;18.50;16.70;;;;;;;20.71;74.04;100360.38;108157;1254;61619;-72
2023/09/15 00:17:48;;;;;;;20.30;18.20;;;;;;;20.74;74.17;100362.44;108101;1253;71519;-72
2023/09/15 00:20:18;;;;;;;20.20;17.90;;;;;;;20.75;74.12;100359.39;108042;1254;72820;-72
2023/09/15 00:22:52;;;;;;;20.10;18.10;;;;;;;20.78;74.22;100362.28;108212;1253;73009;-72
2023/09/15 00:25:25;;;;;;;22.40;19.90;;;;;;;20.79;74.30;100363.86;108244;1254;61687;-71
2023/09/15 00:27:59;;;;;;;22.00;19.70;;;;;;;20.80;74.43;100368.05;108078;1256;60072;-71
2023/09/15 00:30:27;;;;;;;22.90;20.30;;;;;;;20.82;74.58;100366.46;108322;1254;73647;-72
2023/09/15 00:32:54;;;;;;;24.10;21.20;;;;;;;20.84;74.58;100369.65;108230;1253;72780;-72
2023/09/15 00:35:27;;;;;;;25.00;22.40;;;;;;;20.86;74.85;100369.57;108246;1253;72549;-72
2023/09/15 00:37:57;;;;;;;25.60;23.10;;;;;;;20.88;74.94;100375.61;108010;1254;62348;-72
2023/09/15 00:40:24;;;;;;;26.80;22.80;;;;;;;20.87;75.08;100374.95;108270;1253;60322;-70
2023/09/15 00:42:53;;;;;;;24.80;22.10;;;;;;;20.88;75.26;100379.45;108138;1256;73864;-72
2023/09/15 00:45:22;;;;;;;28.00;25.30;;;;;;;20.85;75.32;100378.36;108173;1253;71581;-72
2023/09/15 00:47:51;;;;;;;29.90;26.80;;;;;;;20.82;75.53;100375.41;108244;1253;72504;-72
2023/09/15 00:50:22;;;;;;;28.30;25.30;;;;;;;20.83;75.75;100374.67;108043;1254;61767;-72
2023/09/15 00:52:51;;;;;;;29.10;26.10;;;;;;;20.84;75.91;100376.00;108009;1253;60297;-72
2023/09/15 00:55:24;;;;;;;29.50;26.40;;;;;;;20.85;76.07;100376.42;108045;1253;72170;-72
2023/09/15 00:57:52;;;;;;;32.30;28.90;;;;;;;20.87;76.23;100371.83;107984;1253;71191;-72
2023/09/15 01:00:20;;;;;;;33.40;30.00;;;;;;;20.89;76.46;100379.41;108101;1253;72645;-72
2023/09/15 01:02:48;;;;;;;32.90;29.50;;;;;;;20.90;76.59;100382.28;108102;1253;62882;-72
2023/09/15 01:05:20;;;;;;;32.00;28.50;;;;;;;20.92;76.68;100386.39;108084;1253;60395;-73
2023/09/15 01:07:49;;;;;;;34.20;30.50;;;;;;;20.93;76.81;100391.38;108138;1254;73663;-73
2023/09/15 01:10:16;;;;;;;33.50;29.80;;;;;;;20.92;77.01;100391.81;108154;1254;73823;-72
2023/09/15 01:12:43;;;;;;;33.60;30.00;;;;;;;20.91;77.23;100398.69;108205;1253;72603;-73
2023/09/15 01:15:14;;;;;;;36.40;30.90;;;;;;;20.92;77.36;100402.58;108084;1253;62387;-71
2023/09/15 01:18:00;;;;;;;33.40;29.60;;;;;;;20.93;77.39;100405.42;108110;1253;60628;-71
2023/09/15 01:20:33;;;;;;;27.60;24.50;;;;;;;20.95;77.47;100408.66;108116;1252;73686;-71
2023/09/15 01:23:15;;;;;;;30.00;26.70;;;;;;;20.95;77.53;100412.61;108144;1253;72550;-71
2023/09/15 01:25:52;;;;;;;27.90;25.00;;;;;;;20.95;77.65;100413.33;107897;1254;72729;-71
2023/09/15 01:28:31;;;;;;;24.90;22.30;;;;;;;20.96;77.61;100416.64;108039;1252;61301;-71
2023/09/15 01:30:58;;;;;;;24.20;21.60;;;;;;;20.95;77.53;100413.89;108229;1254;60432;-71
2023/09/15 01:33:25;;;;;;;25.20;22.60;;;;;;;20.95;77.45;100414.95;108068;1254;73672;-72
2023/09/15 01:35:52;;;;;;;26.40;23.60;;;;;;;20.93;77.34;100414.72;108105;1254;71817;-71
2023/09/15 01:38:19;;;;;;;26.00;23.10;;;;;;;20.89;77.06;100417.07;108119;1253;72655;-72
2023/09/15 01:40:45;;;;;;;26.60;23.90;;;;;;;20.85;76.81;100422.74;108099;1253;61705;-73
2023/09/15 01:43:13;;;;;;;26.90;24.10;;;;;;;20.80;76.57;100423.03;108175;1254;61601;-71
2023/09/15 01:45:40;;;;;;;27.00;24.40;;;;;;;20.75;76.47;100420.27;107975;1253;73888;-71
2023/09/15 01:48:07;;;;;;;27.30;24.50;;;;;;;20.72;76.58;100423.02;108115;1253;72700;-71
2023/09/15 01:50:34;;;;;;;29.20;26.30;;;;;;;20.71;76.62;100425.90;108124;1254;72738;-73
2023/09/15 01:53:04;;;;;;;28.80;24.80;;;;;;;20.69;76.61;100424.60;108289;1252;63464;-73
2023/09/15 01:55:32;;;;;;;28.80;25.90;;;;;;;20.69;76.77;100426.77;108101;1252;60287;-71
2023/09/15 01:57:59;;;;;;;24.90;22.40;;;;;;;20.69;76.88;100428.55;108266;1254;71735;-71
2023/09/15 02:00:37;;;;;;;23.10;20.70;;;;;;;20.69;76.78;100429.61;108170;1254;72554;-71
2023/09/15 02:03:04;;;;;;;21.20;19.00;;;;;;;20.69;76.99;100436.28;108271;1253;72706;-72
2023/09/15 02:05:32;;;;;;;18.30;16.50;;;;;;;20.70;77.06;100445.33;108250;1253;60613;-72
2023/09/15 02:07:58;;;;;;;18.10;16.30;;;;;;;20.70;77.07;100447.05;108198;1253;60292;-73
2023/09/15 02:10:27;;;;;;;17.00;15.30;;;;;;;20.70;77.15;100444.01;108208;1254;74329;-72
2023/09/15 02:12:53;;;;;;;15.80;14.20;;;;;;;20.69;77.21;100441.71;108482;1254;72918;-72
2023/09/15 02:15:23;;;;;;;16.60;14.10;;;;;;;20.68;77.25;100444.27;108278;1256;72548;-72
2023/09/15 02:17:51;;;;;;;14.90;13.30;;;;;;;20.70;77.32;100448.52;108113;1253;60775;-72
2023/09/15 02:20:19;;;;;;;13.40;12.10;;;;;;;20.72;77.23;100451.37;108157;1252;60248;-72
2023/09/15 02:22:45;;;;;;;14.30;12.80;;;;;;;20.71;77.20;100450.89;108228;1253;72371;-72
2023/09/15 02:25:12;;;;;;;16.10;13.80;;;;;;;20.71;77.16;100453.97;108126;1254;72364;-73
2023/09/15 02:27:39;;;;;;;15.30;13.70;;;;;;;20.71;77.14;100454.84;108230;1254;72752;-72
2023/09/15 02:30:07;;;;;;;14.90;13.30;;;;;;;20.71;77.04;100451.83;108066;1253;61858;-71
2023/09/15 02:32:34;;;;;;;16.50;13.30;;;;;;;20.72;77.09;100461.52;108396;1254;60322;-71
2023/09/15 02:35:00;;;;;;;14.90;13.30;;;;;;;20.73;77.04;100465.71;108161;1254;73666;-72
2023/09/15 02:37:27;;;;;;;14.00;12.60;;;;;;;20.71;77.04;100466.48;108302;1254;71018;-72
2023/09/15 02:39:54;;;;;;;14.20;12.70;;;;;;;20.74;76.96;100463.02;108276;1253;72485;-73
2023/09/15 02:42:23;;;;;;;15.30;13.80;;;;;;;20.75;76.86;100463.45;108137;1254;61824;-70
2023/09/15 02:44:50;;;;;;;14.80;13.10;;;;;;;20.76;76.82;100464.67;108230;1253;60410;-71
2023/09/15 02:47:18;;;;;;;15.10;12.80;;;;;;;20.78;76.77;100465.80;108160;1254;72325;-72
2023/09/15 02:49:46;;;;;;;15.30;12.70;;;;;;;20.77;76.58;100472.08;108126;1253;72743;-72
2023/09/15 02:52:12;;;;;;;14.80;13.20;;;;;;;20.76;76.53;100473.67;108028;1256;72500;-72
2023/09/15 02:54:39;;;;;;;15.30;13.20;;;;;;;20.77;76.59;100477.25;108195;1254;62062;-72
2023/09/15 02:57:06;;;;;;;15.30;13.30;;;;;;;20.74;76.47;100475.75;108253;1253;60517;-71
2023/09/15 02:59:33;;;;;;;15.10;13.40;;;;;;;20.69;76.51;100484.63;108207;1253;72259;-72
2023/09/15 03:02:02;;;;;;;15.80;13.50;;;;;;;20.71;76.41;100482.73;108093;1253;71624;-72
2023/09/15 03:04:29;;;;;;;13.70;12.30;;;;;;;20.70;76.39;100483.73;108280;1256;72468;-73
2023/09/15 03:06:56;;;;;;;14.00;12.50;;;;;;;20.69;76.38;100484.30;108245;1253;61671;-72
2023/09/15 03:09:24;;;;;;;13.70;12.20;;;;;;;20.69;76.34;100484.30;107965;1252;60383;-73
2023/09/15 03:11:51;;;;;;;13.90;12.20;;;;;;;20.69;76.35;100487.95;108160;1253;73789;-72
2023/09/15 03:14:19;;;;;;;12.80;11.50;;;;;;;20.67;76.13;100491.23;108112;1253;74033;-72
2023/09/15 03:16:46;;;;;;;12.90;11.60;;;;;;;20.66;76.17;100492.84;108221;1254;70934;-72
2023/09/15 03:19:13;;;;;;;13.10;11.70;;;;;;;20.66;76.05;100493.77;108193;1253;62305;-72
2023/09/15 03:21:40;;;;;;;12.80;11.50;;;;;;;20.64;76.16;100491.33;108162;1254;60302;-73
2023/09/15 03:24:07;;;;;;;12.10;10.70;;;;;;;20.65;76.10;100495.47;108243;1254;74877;-73
2023/09/15 03:26:35;;;;;;;11.50;10.20;;;;;;;20.66;76.21;100502.17;108173;1253;71441;-73
2023/09/15 03:29:02;;;;;;;11.80;10.70;;;;;;;20.66;76.09;100496.03;108779;1252;71538;-73
2023/09/15 03:31:29;;;;;;;11.80;10.60;;;;;;;20.67;76.03;100498.79;108268;1253;61904;-73
2023/09/15 03:33:56;;;;;;;13.50;10.90;;;;;;;20.64;75.99;100500.92;107939;1254;60549;-73
2023/09/15 03:36:26;;;;;;;12.60;11.10;;;;;;;20.63;75.99;100505.74;108169;1253;73791;-72
2023/09/15 03:38:53;;;;;;;12.70;11.40;;;;;;;20.61;76.06;100512.27;108054;1254;71808;-73
2023/09/15 03:41:21;;;;;;;14.00;11.70;;;;;;;20.57;75.99;100507.95;108127;1254;72608;-73
2023/09/15 03:43:48;;;;;;;13.70;11.90;;;;;;;20.56;75.96;100515.86;108159;1253;61860;-71
2023/09/15 03:46:15;;;;;;;12.60;10.80;;;;;;;20.54;76.03;100521.44;108211;1252;60549;-71
2023/09/15 03:48:42;;;;;;;13.10;11.70;;;;;;;20.49;76.02;100518.81;108033;1253;76293;-73
2023/09/15 03:51:09;;;;;;;12.70;11.30;;;;;;;20.46;76.08;100522.48;108192;1254;71267;-72
2023/09/15 03:53:36;;;;;;;12.80;11.50;;;;;;;20.45;76.00;100525.85;108152;1254;73081;-72
2023/09/15 03:56:03;;;;;;;12.90;11.10;;;;;;;20.43;76.12;100526.33;108212;1254;61825;-72
2023/09/15 03:58:30;;;;;;;15.00;12.20;;;;;;;20.43;76.17;100526.84;108190;1253;60437;-72
2023/09/15 04:00:57;;;;;;;15.40;11.30;;;;;;;20.42;76.23;100535.03;108064;1254;75685;-72
2023/09/15 04:03:25;;;;;;;15.50;11.80;;;;;;;20.42;76.22;100537.95;108202;1256;72677;-72
2023/09/15 04:05:52;;;;;;;13.80;12.30;;;;;;;20.42;76.11;100544.30;108049;1253;74231;-71
2023/09/15 04:08:19;;;;;;;12.60;11.30;;;;;;;20.40;76.17;100548.52;108198;1253;61836;-72
2023/09/15 04:10:48;;;;;;;13.60;12.20;;;;;;;20.40;76.17;100547.05;108512;1252;60207;-72
2023/09/15 04:13:15;;;;;;;14.80;13.30;;;;;;;20.42;76.27;100545.41;108180;1256;72323;-73
2023/09/15 04:15:42;;;;;;;14.20;12.70;;;;;;;20.44;76.13;100544.80;108189;1253;73229;-72
2023/09/15 04:18:09;;;;;;;14.50;13.00;;;;;;;20.46;76.11;100550.06;107992;1254;72655;-72
2023/09/15 04:20:37;;;;;;;14.10;12.00;;;;;;;20.48;76.04;100554.75;108300;1254;60734;-72
2023/09/15 04:23:14;;;;;;;13.80;11.90;;;;;;;20.51;76.06;100560.11;108170;1253;60498;-72
2023/09/15 04:25:42;;;;;;;13.60;12.30;;;;;;;20.55;76.02;100561.49;108125;1253;76172;-72
2023/09/15 04:28:12;;;;;;;13.60;12.20;;;;;;;20.60;76.12;100565.44;108236;1253;72526;-72
2023/09/15 04:30:39;;;;;;;14.10;12.70;;;;;;;20.65;76.04;100568.41;108202;1253;72437;-72
2023/09/15 04:33:06;;;;;;;15.20;13.60;;;;;;;20.68;76.01;100568.02;108107;1253;61768;-72
2023/09/15 04:35:33;;;;;;;15.80;14.20;;;;;;;20.69;75.85;100568.38;108039;1254;60404;-72
2023/09/15 04:38:00;;;;;;;17.90;16.10;;;;;;;20.72;75.71;100564.54;107900;1254;72628;-72
2023/09/15 04:40:29;;;;;;;18.10;16.20;;;;;;;20.76;75.73;100564.17;108302;1256;72069;-72
2023/09/15 04:42:56;;;;;;;17.00;15.20;;;;;;;20.81;75.58;100564.00;108251;1252;73583;-72
2023/09/15 04:45:26;;;;;;;16.50;14.70;;;;;;;20.87;75.35;100566.14;108241;1253;60820;-72
2023/09/15 04:47:54;;;;;;;17.80;15.90;;;;;;;20.92;75.31;100565.20;107855;1253;60975;-73
2023/09/15 04:50:22;;;;;;;16.50;14.80;;;;;;;20.99;75.18;100564.40;108148;1254;73644;-72
2023/09/15 04:52:52;;;;;;;17.10;15.20;;;;;;;21.07;75.12;100560.20;108293;1254;72233;-72
2023/09/15 04:55:19;;;;;;;18.30;16.20;;;;;;;21.16;74.82;100559.67;108056;1254;72434;-72
2023/09/15 04:57:46;;;;;;;20.00;17.90;;;;;;;21.26;74.64;100562.19;108051;1253;62016;-72
2023/09/15 05:00:23;;;;;;;18.20;16.30;;;;;;;21.34;74.26;100559.39;107995;1252;60884;-74
2023/09/15 05:02:55;;;;;;;20.80;18.50;;;;;;;21.39;73.75;100558.73;107993;1256;72581;-73
2023/09/15 05:05:26;;;;;;;20.90;18.70;;;;;;;21.41;73.14;100560.29;107763;1254;72747;-70
2023/09/15 05:07:53;;;;;;;18.80;16.80;;;;;;;21.41;72.90;100567.92;107885;1256;72545;-71
2023/09/15 05:10:22;;;;;;;19.70;17.60;;;;;;;21.40;72.69;100572.00;108198;1253;62294;-72
2023/09/15 05:12:49;;;;;;;21.90;18.70;;;;;;;21.40;72.56;100575.56;107954;1253;60506;-72
2023/09/15 05:15:16;;;;;;;20.00;17.70;;;;;;;21.38;72.48;100575.16;108204;1254;73864;-71
2023/09/15 05:17:44;;;;;;;21.40;19.10;;;;;;;21.37;72.24;100575.91;108004;1253;73064;-71
2023/09/15 05:20:11;;;;;;;22.80;19.80;;;;;;;21.38;72.30;100578.83;107903;1254;72374;-71
2023/09/15 05:22:38;;;;;;;23.00;19.80;;;;;;;21.42;72.31;100579.77;108131;1253;60744;-72
2023/09/15 05:25:07;;;;;;;22.50;20.10;;;;;;;21.42;72.10;100583.12;108147;1252;60384;-72
2023/09/15 05:27:35;;;;;;;23.00;20.00;;;;;;;21.43;72.19;100581.05;108273;1253;74774;-73
2023/09/15 05:30:03;;;;;;;24.50;21.50;;;;;;;21.49;72.13;100585.32;108201;1254;72734;-73
2023/09/15 05:32:33;;;;;;;23.40;21.00;;;;;;;21.53;72.07;100586.56;108283;1253;72640;-72
2023/09/15 05:35:00;;;;;;;23.50;21.00;;;;;;;21.60;71.94;100594.19;108158;1254;60949;-72
2023/09/15 05:37:27;;;;;;;23.20;20.80;;;;;;;21.67;71.85;100599.35;108119;1254;60414;-73
2023/09/15 05:39:53;;;;;;;23.60;21.10;;;;;;;21.75;71.71;100601.67;108006;1254;71665;-73
2023/09/15 05:42:21;;;;;;;23.90;21.50;;;;;;;21.83;71.52;100606.17;108187;1253;72488;-71
2023/09/15 05:44:48;;;;;;;25.90;21.80;;;;;;;21.88;71.26;100606.96;108232;1254;72082;-72
2023/09/15 05:47:14;;;;;;;25.60;22.80;;;;;;;21.90;70.65;100609.00;108106;1254;60462;-71
2023/09/15 05:49:41;;;;;;;24.30;21.80;;;;;;;21.91;70.30;100611.48;108388;1253;60397;-72
2023/09/15 05:52:11;;;;;;;23.90;21.40;;;;;;;21.91;70.01;100610.16;108174;1254;73520;-72
2023/09/15 05:54:38;;;;;;;26.70;23.60;;;;;;;21.92;69.96;100608.38;108297;1254;71347;-73
2023/09/15 05:57:05;;;;;;;24.80;22.10;;;;;;;21.96;69.82;100610.45;108194;1256;71227;-73
2023/09/15 05:59:34;;;;;;;24.60;21.80;;;;;;;22.00;69.87;100613.09;108153;1253;62443;-72
2023/09/15 06:02:01;;;;;;;23.10;20.70;;;;;;;22.04;69.67;100615.06;108245;1253;60446;-72
2023/09/15 06:04:28;;;;;;;25.00;22.50;;;;;;;22.07;69.54;100616.58;108140;1254;72357;-72
2023/09/15 06:06:55;;;;;;;24.30;21.20;;;;;;;22.09;69.37;100615.92;108228;1254;72675;-72
2023/09/15 06:09:23;;;;;;;22.20;19.90;;;;;;;22.10;69.11;100617.35;108113;1253;72561;-73
2023/09/15 06:11:50;;;;;;;22.10;19.90;;;;;;;22.10;69.12;100615.72;108612;1256;61866;-74
2023/09/15 06:14:17;;;;;;;20.30;18.10;;;;;;;22.11;68.91;100619.64;108097;1257;60164;-73
2023/09/15 06:16:43;;;;;;;20.30;18.10;;;;;;;22.15;68.32;100620.39;108333;1253;73805;-73
2023/09/15 06:19:10;;;;;;;19.80;17.90;;;;;;;22.21;68.24;100625.33;108264;1252;72593;-72
2023/09/15 06:21:37;;;;;;;18.40;16.50;;;;;;;22.32;68.03;100623.66;108244;1254;71165;-73
2023/09/15 06:24:04;;;;;;;17.50;15.70;;;;;;;22.38;67.41;100625.75;108189;1254;62044;-73
2023/09/15 06:26:32;;;;;;;20.40;17.40;;;;;;;22.42;66.90;100628.07;108287;1253;59274;-73
2023/09/15 06:28:59;;;;;;;22.10;18.30;;;;;;;22.44;66.42;100628.21;108215;1253;73938;-73
2023/09/15 06:31:26;;;;;;;20.10;18.00;;;;;;;22.44;65.95;100631.35;108177;1254;72494;-73
2023/09/15 06:33:53;;;;;;;22.40;19.70;;;;;;;22.39;65.68;100632.10;108030;1254;253101;-74
2023/09/15 06:36:21;;;;;;;21.80;19.60;;;;;;;22.35;65.37;100639.11;108278;1253;62054;-75
2023/09/15 06:38:50;;;;;;;21.00;18.80;;;;;;;22.31;65.38;100640.58;108054;1254;60311;-74
2023/09/15 06:41:17;;;;;;;19.90;17.80;;;;;;;22.26;65.37;100641.64;108262;1253;72511;-73
2023/09/15 06:43:44;;;;;;;17.90;16.10;;;;;;;22.27;65.52;100647.89;108016;1254;72835;-74
2023/09/15 06:46:11;;;;;;;18.20;16.40;;;;;;;22.28;65.41;100649.00;108262;1256;72465;-73
2023/09/15 06:48:38;;;;;;;16.80;15.10;;;;;;;22.29;65.30;100649.39;108159;1254;60831;-77
2023/09/15 06:51:05;;;;;;;15.60;14.00;;;;;;;22.29;65.38;100651.34;108176;1253;60444;-73
2023/09/15 06:53:33;;;;;;;16.00;14.30;;;;;;;22.27;65.24;100656.05;108215;1253;73819;-75
2023/09/15 06:55:59;;;;;;;16.40;14.80;;;;;;;22.23;65.24;100655.70;108153;1254;72573;-74
2023/09/15 06:58:26;;;;;;;16.20;14.60;;;;;;;22.22;65.39;100652.71;108215;1254;72840;-75
2023/09/15 07:00:55;;;;;;;17.70;15.10;;;;;;;22.24;65.63;100655.02;108229;1253;63740;-75
2023/09/15 07:03:23;;;;;;;16.90;15.10;;;;;;;22.27;65.60;100657.70;108293;1253;60330;-73
2023/09/15 07:05:50;;;;;;;16.70;15.00;;;;;;;22.29;65.56;100662.29;108284;1254;73740;-80
2023/09/15 07:08:17;;;;;;;16.90;15.20;;;;;;;22.33;65.57;100663.59;108135;1253;72720;-75
2023/09/15 07:10:44;;;;;;;16.70;14.90;;;;;;;22.37;65.37;100660.46;108190;1256;72530;-76
2023/09/15 07:13:12;;;;;;;18.00;14.70;;;;;;;22.40;65.25;100666.27;108201;1254;60346;-74
2023/09/15 07:15:38;;;;;;;16.20;14.50;;;;;;;22.42;64.95;100668.06;108289;1254;60182;-73
2023/09/15 07:18:07;;;;;;;17.10;15.10;;;;;;;22.44;65.12;100668.35;108187;1254;73798;-74
2023/09/15 07:20:33;;;;;;;15.90;14.10;;;;;;;22.44;64.84;100669.68;108345;1254;72516;-74
2023/09/15 07:23:00;;;;;;;16.10;14.50;;;;;;;22.43;64.62;100667.92;108224;1253;71630;-74
2023/09/15 07:25:27;;;;;;;15.00;13.50;;;;;;;22.41;64.31;100674.86;108179;1254;61066;-76
2023/09/15 07:27:54;;;;;;;14.20;12.70;;;;;;;22.38;64.43;100675.75;108320;1253;60344;-76
2023/09/15 07:30:21;;;;;;;13.70;12.30;;;;;;;22.33;64.41;100676.50;108272;1254;73521;-76
2023/09/15 07:32:48;;;;;;;14.50;12.50;;;;;;;22.26;64.36;100683.86;108190;1254;72748;-77
2023/09/15 07:35:15;;;;;;;12.80;11.50;;;;;;;22.19;64.46;100685.16;108378;1253;71134;-76
2023/09/15 07:37:42;;;;;;;13.70;12.20;;;;;;;22.13;64.76;100680.48;108194;1254;61747;-76
2023/09/15 07:40:09;;;;;;;13.80;12.40;;;;;;;22.08;65.03;100688.23;108109;1253;60561;-75
2023/09/15 07:42:37;;;;;;;13.60;12.20;;;;;;;22.04;65.18;100687.06;108071;1254;73599;-76
2023/09/15 07:45:04;;;;;;;13.70;12.20;;;;;;;22.03;65.54;100689.12;108483;1253;72859;-76
2023/09/15 07:47:33;;;;;;;14.40;12.80;;;;;;;22.05;65.71;100699.33;108175;1253;72447;-76
2023/09/15 07:49:59;;;;;;;13.90;12.10;;;;;;;22.07;65.68;100695.02;108319;1257;60591;-76
2023/09/15 07:52:29;;;;;;;13.80;11.90;;;;;;;22.09;65.50;100697.98;108161;1253;60297;-74
2023/09/15 07:54:56;;;;;;;14.50;12.10;;;;;;;22.14;65.39;100693.76;108177;1253;72829;-74
2023/09/15 07:57:24;;;;;;;14.40;12.30;;;;;;;22.20;65.13;100700.58;108167;1254;72689;-75
2023/09/15 07:59:51;;;;;;;14.80;13.00;;;;;;;22.24;64.93;100694.69;108253;1254;73606;-76
2023/09/15 08:02:20;;;;;;;15.40;11.60;;;;;;;22.31;64.86;100698.98;108263;1254;61890;-75
2023/09/15 08:04:47;;;;;;;13.70;12.20;;;;;;;22.37;64.71;100701.92;108202;1254;60543;-76
2023/09/15 08:07:14;;;;;;;13.80;12.30;;;;;;;22.41;64.33;100706.88;108164;1254;73755;-75
2023/09/15 08:09:42;;;;;;;13.80;11.80;;;;;;;22.43;63.99;100706.70;108307;1254;72867;-75
2023/09/15 08:12:08;;;;;;;14.60;12.50;;;;;;;22.41;63.73;100713.36;108249;1252;71650;-75
2023/09/15 08:14:35;;;;;;;13.50;11.60;;;;;;;22.40;63.79;100707.93;108284;1253;62229;-76
2023/09/15 08:17:02;;;;;;;16.50;12.50;;;;;;;22.44;63.98;100714.54;108074;1254;60385;-76
2023/09/15 08:19:30;;;;;;;14.20;12.70;;;;;;;22.50;63.77;100714.05;108108;1254;73663;-76
2023/09/15 08:22:00;;;;;;;13.50;12.10;;;;;;;22.53;63.70;100716.90;108182;1252;72456;-78
2023/09/15 08:24:27;;;;;;;15.30;13.10;;;;;;;22.56;63.45;100719.55;108318;1254;72652;-76
2023/09/15 08:26:54;;;;;;;15.80;13.20;;;;;;;22.56;63.23;100716.61;108142;1256;61708;-77
2023/09/15 08:29:21;;;;;;;15.20;13.60;;;;;;;22.57;63.22;100717.40;108208;1254;60393;-77
2023/09/15 08:31:48;;;;;;;16.10;14.10;;;;;;;22.59;63.12;100715.62;108173;1254;72948;-76
2023/09/15 08:34:17;;;;;;;18.00;13.70;;;;;;;22.63;62.79;100715.92;108151;1254;72975;-77
2023/09/15 08:36:43;;;;;;;14.30;12.80;;;;;;;22.70;62.74;100714.21;108164;1254;71638;-76
2023/09/15 08:39:12;;;;;;;14.80;13.20;;;;;;;22.79;62.44;100715.41;108168;1254;63168;-78
2023/09/15 08:41:41;;;;;;;16.30;14.00;;;;;;;22.89;61.71;100725.77;108275;1256;60404;-76
2023/09/15 08:44:09;;;;;;;16.20;13.80;;;;;;;22.95;61.24;100724.37;108129;1253;73162;-77
2023/09/15 08:46:39;;;;;;;16.20;13.60;;;;;;;22.98;61.37;100729.85;108259;1254;72846;-75
2023/09/15 08:49:07;;;;;;;14.90;13.40;;;;;;;23.01;61.16;100734.16;108560;1253;72589;-76
2023/09/15 08:51:36;;;;;;;16.10;13.80;;;;;;;23.01;60.84;100739.06;108105;1253;60306;-76
2023/09/15 08:54:03;;;;;;;16.70;14.20;;;;;;;22.98;60.79;100736.69;108314;1253;60299;-76
2023/09/15 08:56:31;;;;;;;17.20;14.10;;;;;;;22.92;60.79;100735.58;108226;1254;73836;-75
2023/09/15 08:58:58;;;;;;;15.20;13.60;;;;;;;22.89;60.90;100740.02;107950;1254;73137;-76
2023/09/15 09:01:26;;;;;;;15.30;13.80;;;;;;;22.90;60.89;100742.02;108008;1253;71443;-76
2023/09/15 09:03:53;;;;;;;16.20;14.50;;;;;;;22.95;60.83;100748.73;108024;1254;61774;-76
2023/09/15 09:06:21;;;;;;;15.80;14.10;;;;;;;22.99;60.77;100749.20;108283;1253;60572;-76
2023/09/15 09:08:49;;;;;;;15.50;13.90;;;;;;;23.01;60.52;100745.38;108105;1254;73867;-76
2023/09/15 09:11:15;;;;;;;18.60;13.80;;;;;;;23.05;60.44;100743.52;108359;1254;71289;-76
2023/09/15 09:13:51;;;;;;;15.10;13.50;;;;;;;23.11;60.16;100737.95;108084;1253;72487;-76
2023/09/15 09:16:20;;;;;;;16.20;13.60;;;;;;;23.16;59.72;100742.94;107991;1253;62124;-76
2023/09/15 09:18:58;;;;;;;15.20;13.30;;;;;;;23.19;59.50;100750.17;108489;1254;60348;-76
2023/09/15 09:21:26;;;;;;;16.50;14.80;;;;;;;23.23;59.19;100749.56;108326;1254;73855;-75
2023/09/15 09:23:54;;;;;;;16.50;13.70;;;;;;;23.30;58.83;100741.38;108117;1254;72592;-75
2023/09/15 09:26:21;;;;;;;15.40;13.80;;;;;;;23.37;58.68;100746.81;108136;1254;71335;-75
2023/09/15 09:28:48;;;;;;;15.90;13.70;;;;;;;23.43;58.00;100747.35;108172;1254;60508;-76
2023/09/15 09:31:15;;;;;;;18.30;13.80;;;;;;;23.44;57.45;100747.98;108197;1254;60466;-76
2023/09/15 09:33:42;;;;;;;15.20;13.70;;;;;;;23.41;57.22;100750.09;108143;1254;74015;-72
2023/09/15 09:36:13;;;;;;;15.00;13.20;;;;;;;23.47;57.47;100750.98;108152;1253;72682;-72
2023/09/15 09:38:45;;;;;;;14.70;12.80;;;;;;;23.57;57.52;100752.23;108180;1254;72661;-72
2023/09/15 09:41:13;;;;;;;13.40;11.90;;;;;;;23.65;56.94;100749.45;108314;1254;60075;-73
2023/09/15 09:43:42;;;;;;;14.10;12.20;;;;;;;23.68;56.78;100756.58;108344;1253;60335;-74
2023/09/15 09:46:10;;;;;;;14.70;13.00;;;;;;;23.75;56.79;100752.45;108225;1254;72415;-72
2023/09/15 09:48:37;;;;;;;16.40;13.20;;;;;;;23.89;56.66;100754.13;108256;1257;71361;-73
2023/09/15 09:51:05;;;;;;;15.40;13.80;;;;;;;23.99;55.81;100756.23;108096;1254;71280;-72
2023/09/15 09:53:33;;;;;;;15.10;13.30;;;;;;;23.98;55.54;100757.09;108249;1254;62248;-73
2023/09/15 09:56:01;;;;;;;14.50;12.80;;;;;;;23.92;55.56;100763.58;108254;1254;60440;-73
2023/09/15 09:58:28;;;;;;;14.20;12.70;;;;;;;23.83;55.62;100762.45;108199;1254;73870;-73
2023/09/15 10:00:55;;;;;;;14.50;12.60;;;;;;;23.77;55.63;100764.21;108156;1254;72819;-73
2023/09/15 10:03:22;;;;;;;13.30;11.30;;;;;;;23.74;55.98;100759.59;108096;1254;73153;-72
2023/09/15 10:05:49;;;;;;;14.10;11.70;;;;;;;23.72;55.85;100760.20;108203;1254;62973;-71
2023/09/15 10:08:16;;;;;;;11.90;10.60;;;;;;;23.70;55.50;100760.71;108315;1253;60404;-72
2023/09/15 10:10:45;;;;;;;12.70;10.50;;;;;;;23.72;55.86;100760.39;108145;1256;74322;-73
2023/09/15 10:13:13;;;;;;;12.40;10.70;;;;;;;23.81;55.53;100768.77;108205;1254;71747;-72
2023/09/15 10:15:40;;;;;;;14.50;10.70;;;;;;;23.85;55.30;100768.66;108158;1254;71479;-70
2023/09/15 10:18:09;;;;;;;13.50;10.60;;;;;;;23.86;55.50;100767.52;108005;1252;60369;-72
2023/09/15 10:20:36;;;;;;;12.30;10.40;;;;;;;23.87;55.56;100776.52;108221;1253;60333;-72
2023/09/15 10:23:04;;;;;;;11.00;9.70;;;;;;;23.87;55.39;100780.27;108149;1254;73740;-72
2023/09/15 10:25:44;;;;;;;13.00;10.10;;;;;;;23.84;55.22;100785.09;108037;1256;73924;-72
2023/09/15 10:28:11;;;;;;;12.30;10.20;;;;;;;23.82;55.14;100787.54;108085;1254;70365;-73
2023/09/15 10:30:56;;;;;;;13.80;10.80;;;;;;;23.79;55.09;100788.11;108262;1254;60704;-73
2023/09/15 10:33:25;;;;;;;11.30;9.90;;;;;;;23.79;55.00;100784.20;107993;1254;61119;-73
2023/09/15 10:35:52;;;;;;;11.00;9.40;;;;;;;23.76;54.87;100785.66;108184;1254;73809;-73
2023/09/15 10:38:29;;;;;;;12.10;9.60;;;;;;;23.73;54.84;100791.42;108103;1254;71417;-72
2023/09/15 10:40:58;;;;;;;10.60;9.10;;;;;;;23.69;54.70;100791.38;108011;1256;72572;-72
2023/09/15 10:43:25;;;;;;;10.10;8.40;;;;;;;23.68;54.54;100791.60;108252;1254;60363;-72
2023/09/15 10:46:03;;;;;;;8.90;8.00;;;;;;;23.68;54.55;100788.88;108190;1254;60447;-73
2023/09/15 10:48:46;;;;;;;9.40;8.00;;;;;;;23.66;54.63;100793.66;108221;1254;72987;-72
2023/09/15 10:51:16;;;;;;;10.10;7.70;;;;;;;23.62;54.78;100783.57;108115;1254;72599;-73
2023/09/15 10:53:46;;;;;;;8.40;7.50;;;;;;;23.64;55.03;100780.67;108026;1254;71131;-73
2023/09/15 10:56:16;;;;;;;8.20;7.20;;;;;;;23.73;54.83;100780.05;108017;1255;60503;-73
2023/09/15 10:58:46;;;;;;;9.10;7.50;;;;;;;23.87;54.59;100781.37;108339;1252;60296;-72
2023/09/15 11:01:14;;;;;;;8.20;7.30;;;;;;;23.98;54.29;100786.77;108088;1254;73842;-73
2023/09/15 11:03:42;;;;;;;9.10;7.80;;;;;;;24.04;54.04;100780.40;108097;1254;72424;-73
2023/09/15 11:06:15;;;;;;;9.70;8.30;;;;;;;24.14;53.85;100780.70;108184;1254;72629;-72